»·PEaware :: WAT203 KSNA-KLAS

WAT203 :: KSNA-KLAS

FLIGHT INFORMATION

Flight Status: Arrived
Operator: Unknown
More flights by this operator :: More flights under this callsign
Pilot: Zachary C. (8151)
Aircraft: BOEING 737-800
(B738)
More flights by this aircraft type
Origin: KSNA John Wayne-Orange Co
United States
Destination: KLAS McCarran Intl
United States
More flights between these airports :: More routes between these airports
Route: FINZZ2 MISEN KEPEC6
File this flight plan on PilotEdge
Remarks: RMK / SIMBRIEF
Altitude:
(Current/Filed)
29,000ft
Speed:
(Current/Filed)
464kts
Departed: 20-May-20 06:31 PM
Arrived: 20-May-20 07:17 PM
Distance/Time
Traveled:
197nm/0:46
Distance/Time
To Go:
Arrived

Flight Plot

Page will automatically refresh every two minutes.


Map Options




Map Legend


Flown Route
Filed Route
Departure Airport
Arrival Airport
Navaid (VOR, NDB)
Fix

Horizontal Profiles

Position Reports

Time Latitude Longitude Heading Altitude Ground
Speed
20-May-20 17:59 33.679023 -117.862629 117 67ft 0kts
20-May-20 18:00 33.679023 -117.862629 117 67ft 0kts
20-May-20 18:01 33.679023 -117.862629 117 67ft 0kts
20-May-20 18:02 33.679023 -117.862629 117 67ft 0kts
20-May-20 18:03 33.679023 -117.862629 117 67ft 0kts
20-May-20 18:04 33.679023 -117.862629 117 67ft 0kts
20-May-20 18:05 33.679023 -117.862629 117 67ft 0kts
20-May-20 18:06 33.679023 -117.862629 117 67ft 0kts
20-May-20 18:07 33.679023 -117.862629 117 67ft 0kts
20-May-20 18:08 33.679023 -117.862629 117 67ft 0kts
20-May-20 18:09 33.679023 -117.862629 117 67ft 0kts
20-May-20 18:10 33.679023 -117.862629 117 67ft 0kts
20-May-20 18:11 33.679023 -117.862629 117 67ft 0kts
20-May-20 18:12 33.679023 -117.862629 117 67ft 0kts
20-May-20 18:13 33.679023 -117.862629 117 67ft 0kts
20-May-20 18:14 33.679023 -117.862629 117 67ft 0kts
20-May-20 18:15 33.679023 -117.862629 117 67ft 0kts
20-May-20 18:17 33.679023 -117.862629 117 67ft 0kts
20-May-20 18:18 33.679023 -117.862629 117 67ft 0kts
20-May-20 18:19 33.679023 -117.862629 117 67ft 0kts
20-May-20 18:20 33.679023 -117.862629 117 67ft 0kts
20-May-20 18:21 33.679023 -117.862629 117 67ft 0kts
20-May-20 18:22 33.679036 -117.862657 117 67ft 0kts
20-May-20 18:23 33.678988 -117.863334 49 67ft 2kts
20-May-20 18:24 33.678784 -117.863518 26 67ft 0kts
20-May-20 18:25 33.678784 -117.863518 26 67ft 0kts
20-May-20 18:26 33.679599 -117.863005 27 67ft 14kts
20-May-20 18:27 33.680663 -117.863119 301 67ft 0kts
20-May-20 18:28 33.680663 -117.863119 301 67ft 0kts
20-May-20 18:29 33.680663 -117.863119 301 67ft 0kts
20-May-20 18:30 33.681214 -117.864350 296 67ft 18kts
20-May-20 18:30 33.669776 -117.872561 208 179ft 174kts
20-May-20 18:32 33.606162 -117.895158 186 4171ft 245kts
20-May-20 18:33 33.544217 -117.929856 223 7820ft 263kts
20-May-20 18:33 33.508217 -117.987015 258 8151ft 268kts
20-May-20 18:34 33.533557 -118.071901 316 11704ft 319kts
20-May-20 18:36 33.633203 -118.101328 14 16411ft 345kts
20-May-20 18:36 33.707736 -118.061209 23 17007ft 351kts
20-May-20 18:37 33.796000 -118.009358 22 17031ft 358kts
20-May-20 18:38 33.886133 -117.955382 26 20165ft 383kts
20-May-20 18:39 33.977891 -117.878036 31 22467ft 417kts
20-May-20 18:40 34.070736 -117.788591 38 24830ft 440kts
20-May-20 18:41 34.153724 -117.677958 43 26857ft 461kts
20-May-20 18:42 34.237653 -117.556468 44 28854ft 474kts
20-May-20 18:43 34.321082 -117.432986 44 29062ft 475kts
20-May-20 18:44 34.404426 -117.308325 44 29064ft 479kts
20-May-20 18:45 34.488392 -117.182473 44 29058ft 480kts
20-May-20 18:46 34.572862 -117.056448 44 29061ft 481kts
20-May-20 18:47 34.659316 -116.930593 45 29040ft 487kts
20-May-20 18:48 34.746711 -116.802975 46 29028ft 489kts
20-May-20 18:49 34.834193 -116.677622 41 29032ft 485kts
20-May-20 18:50 34.931945 -116.570281 33 28362ft 446kts
20-May-20 18:51 35.028897 -116.475626 33 25931ft 433kts
20-May-20 18:52 35.117067 -116.384067 40 24077ft 414kts
20-May-20 18:53 35.199179 -116.282450 41 24045ft 421kts
20-May-20 18:54 35.281372 -116.179622 41 24045ft 421kts
20-May-20 18:55 35.363244 -116.076725 41 24045ft 421kts
20-May-20 18:56 35.444935 -115.973700 41 24046ft 421kts
20-May-20 18:57 35.525286 -115.871972 42 22054ft 412kts
20-May-20 18:58 35.604045 -115.771887 43 17479ft 390kts
20-May-20 18:59 35.673373 -115.683279 44 14270ft 335kts
20-May-20 19:00 35.733963 -115.607703 36 13043ft 297kts
20-May-20 19:01 35.810437 -115.572663 3 13037ft 296kts
20-May-20 19:02 35.892604 -115.567955 1 13029ft 298kts
20-May-20 19:03 35.970929 -115.539996 42 12952ft 301kts
20-May-20 19:04 36.007460 -115.450767 67 11630ft 289kts
20-May-20 19:05 36.029068 -115.359535 87 10993ft 275kts
20-May-20 19:06 36.023427 -115.268552 94 9877ft 268kts
20-May-20 19:07 36.016847 -115.177626 94 8771ft 258kts
20-May-20 19:08 36.010975 -115.090802 93 7949ft 243kts
20-May-20 19:09 36.005977 -115.008092 92 7078ft 237kts
20-May-20 19:10 36.002174 -114.927316 73 5917ft 231kts
20-May-20 19:11 36.048634 -114.915041 320 4982ft 193kts
20-May-20 19:12 36.076099 -114.965958 261 3805ft 186kts
20-May-20 19:13 36.073576 -115.029608 271 3706ft 182kts
20-May-20 19:14 36.073670 -115.083862 271 2871ft 148kts
20-May-20 19:15 36.073659 -115.133826 270 2197ft 134kts
20-May-20 19:16 36.074141 -115.149233 293 2192ft 11kts
20-May-20 19:17 36.075893 -115.151680 335 2192ft 8kts
20-May-20 19:18 36.079054 -115.152262 52 2192ft 25kts
20-May-20 19:19 36.080945 -115.147833 58 2192ft 3kts
20-May-20 19:20 36.081005 -115.147720 57 2192ft 0kts
20-May-20 19:21 36.081005 -115.147720 57 2192ft 0kts
20-May-20 19:22 36.081005 -115.147720 57 2192ft 0kts
20-May-20 19:23 36.081005 -115.147720 57 2192ft 0kts

Navigation Log

Ident Type
Flight plan parsing failed, navigation log unavailable